Chennai, India
Current Conditions -  °F | °C
As of 7:10 AM on Tuesday 21 Oct 2014 (Local Time) from VOMM Reporting Station
Haze Haze  
Wind Chill: 79°   Ceiling: 10000
Heat Index: 83°   Visibility: 1.2mi
Dew Point: 77°   Wind: 2mph
Humidity: 94%   Direction: 320°NW
Pressure: 29.91"   Gusts: NA
Location:  13.06°N, 80.25°E
Report Text: VOMM 210210Z 32002KT 2000 BR SCT018 FEW025CB BKN100 26/25 Q1013 BECMG 3000 BR
Loading
Personal Weather Stations






























Interactive Weather Map New forecast layout! Learn more

10-Day Weather Forecast

Advertisements
Track Severe Weather on mobile